createdAt,value
2023-04-24T00:01:16.125Z,2.67
2023-04-24T00:03:42.964Z,3.30
2023-04-24T00:06:09.950Z,3.40
2023-04-24T00:08:37.236Z,3.70
2023-04-24T00:11:04.180Z,3.80
2023-04-24T00:13:30.944Z,3.33
2023-04-24T00:15:57.740Z,3.97
2023-04-24T00:18:24.445Z,3.57
2023-04-24T00:20:51.141Z,3.93
2023-04-24T00:23:17.860Z,3.57
2023-04-24T00:25:44.575Z,3.93
2023-04-24T00:28:11.246Z,4.13
2023-04-24T00:30:38.083Z,3.63
2023-04-24T00:33:04.988Z,4.30
2023-04-24T00:35:31.711Z,5.63
2023-04-24T00:37:58.399Z,4.90
2023-04-24T00:40:25.166Z,4.30
2023-04-24T00:42:52.000Z,4.57
2023-04-24T00:45:18.711Z,5.00
2023-04-24T00:47:47.647Z,5.00
2023-04-24T00:50:16.076Z,5.47
2023-04-24T00:52:42.970Z,5.40
2023-04-24T00:55:10.081Z,5.17
2023-04-24T00:57:37.129Z,5.40
2023-04-24T01:00:06.880Z,5.60
2023-04-24T01:02:35.634Z,5.20
2023-04-24T01:05:03.093Z,5.67
2023-04-24T01:07:30.744Z,5.73
2023-04-24T01:09:57.791Z,5.47
2023-04-24T01:12:24.543Z,5.03
2023-04-24T01:15:00.646Z,5.17
2023-04-24T01:17:27.758Z,5.70
2023-04-24T01:19:54.748Z,5.27
2023-04-24T01:22:23.257Z,4.70
2023-04-24T01:24:50.078Z,4.90
2023-04-24T01:27:17.061Z,5.10
2023-04-24T01:29:44.199Z,4.87
2023-04-24T01:32:11.313Z,4.60
2023-04-24T01:34:39.436Z,5.10
2023-04-24T01:37:06.341Z,5.00
2023-04-24T01:39:34.487Z,5.20
2023-04-24T01:42:02.629Z,5.30
2023-04-24T01:44:34.927Z,5.37
2023-04-24T01:47:02.391Z,5.80
2023-04-24T01:49:29.202Z,5.73
2023-04-24T01:51:56.017Z,6.47
2023-04-24T01:54:22.723Z,6.47
2023-04-24T01:56:49.856Z,6.13
2023-04-24T01:59:18.070Z,6.80
2023-04-24T02:01:44.818Z,6.57
2023-04-24T02:04:11.585Z,7.40
2023-04-24T02:06:38.442Z,7.20
2023-04-24T02:09:15.832Z,7.70
2023-04-24T02:11:45.363Z,7.17
2023-04-24T02:14:12.066Z,7.07
2023-04-24T02:16:38.957Z,7.33
2023-04-24T02:19:05.856Z,7.37
2023-04-24T02:21:32.871Z,7.33
2023-04-24T02:23:59.879Z,7.37
2023-04-24T02:26:27.241Z,6.87
2023-04-24T02:28:53.930Z,7.90
2023-04-24T02:31:20.871Z,7.77
2023-04-24T02:33:47.621Z,8.07
2023-04-24T02:36:14.988Z,7.80
2023-04-24T02:38:41.765Z,8.03
2023-04-24T02:41:08.612Z,9.07
2023-04-24T02:43:35.359Z,9.43
2023-04-24T02:46:02.210Z,8.90
2023-04-24T02:48:29.011Z,8.57
2023-04-24T02:50:56.942Z,8.97
2023-04-24T02:53:24.346Z,7.73
2023-04-24T02:55:51.130Z,7.80
2023-04-24T02:58:18.290Z,6.40
2023-04-24T03:00:44.977Z,6.93
2023-04-24T03:03:11.885Z,5.30
2023-04-24T03:05:38.718Z,4.67
2023-04-24T03:08:05.917Z,4.27
2023-04-24T03:10:33.216Z,4.10
2023-04-24T03:12:59.975Z,4.30
2023-04-24T03:15:27.357Z,4.57
2023-04-24T03:17:56.075Z,5.80
2023-04-24T03:20:23.710Z,6.47
2023-04-24T03:22:50.458Z,5.70
2023-04-24T03:25:17.234Z,6.77
2023-04-24T03:27:43.897Z,7.03
2023-04-24T03:30:11.340Z,5.97
2023-04-24T03:32:40.311Z,6.77
2023-04-24T03:35:09.367Z,6.47
2023-04-24T03:37:36.172Z,7.17
2023-04-24T03:40:03.452Z,6.27
2023-04-24T03:42:30.156Z,6.73
2023-04-24T03:44:56.821Z,6.43
2023-04-24T03:47:23.557Z,8.07
2023-04-24T03:49:50.410Z,6.30
2023-04-24T03:52:17.120Z,6.33
2023-04-24T03:54:43.813Z,7.10
2023-04-24T03:57:10.566Z,6.73
2023-04-24T03:59:37.295Z,6.70
2023-04-24T04:02:04.007Z,5.83
2023-04-24T04:04:30.907Z,5.67
2023-04-24T04:06:57.773Z,4.87
2023-04-24T04:09:24.454Z,4.93
2023-04-24T04:11:52.221Z,4.40
2023-04-24T04:14:18.898Z,4.30
2023-04-24T04:16:45.670Z,4.10
2023-04-24T04:19:12.357Z,3.87
2023-04-24T04:21:39.060Z,3.63
2023-04-24T04:24:06.863Z,3.67
2023-04-24T04:26:34.028Z,3.53
2023-04-24T04:29:04.527Z,3.00
2023-04-24T04:31:31.780Z,3.67
2023-04-24T04:33:58.508Z,3.47
2023-04-24T04:36:25.219Z,3.57
2023-04-24T04:38:51.901Z,4.20
2023-04-24T04:41:19.212Z,4.13
2023-04-24T04:43:47.493Z,4.20
2023-04-24T04:46:14.346Z,4.23
2023-04-24T04:48:41.397Z,4.70
2023-04-24T04:51:08.139Z,4.93
2023-04-24T04:53:34.882Z,4.60
2023-04-24T04:56:01.734Z,4.90
2023-04-24T04:58:34.642Z,4.67
2023-04-24T05:01:01.475Z,4.70
2023-04-24T05:03:28.317Z,4.23
2023-04-24T05:05:55.196Z,4.73
2023-04-24T05:08:26.959Z,4.60
2023-04-24T05:10:54.587Z,4.73
2023-04-24T05:13:28.205Z,3.73
2023-04-24T05:15:59.252Z,4.10
2023-04-24T05:18:26.090Z,4.00
2023-04-24T05:20:52.836Z,3.80
2023-04-24T05:23:19.510Z,3.03
2023-04-24T05:25:47.218Z,2.80
2023-04-24T05:28:13.959Z,1.90
2023-04-24T05:30:40.665Z,2.70
2023-04-24T05:33:09.602Z,2.63
2023-04-24T05:35:36.348Z,2.43
2023-04-24T05:38:02.993Z,1.73
2023-04-24T05:40:29.708Z,1.70
2023-04-24T05:42:56.464Z,1.50
2023-04-24T05:45:23.132Z,1.50
2023-04-24T05:47:52.073Z,1.30
2023-04-24T05:50:39.239Z,1.13
2023-04-24T05:53:08.010Z,1.30
2023-04-24T05:55:35.161Z,1.40
2023-04-24T05:58:01.932Z,1.40
2023-04-24T06:00:29.691Z,1.60
2023-04-24T06:02:56.814Z,1.70
2023-04-24T06:05:23.845Z,1.80
2023-04-24T06:07:51.048Z,2.00
2023-04-24T06:10:17.764Z,2.60
2023-04-24T06:12:44.602Z,2.50
2023-04-24T06:15:11.533Z,2.50
2023-04-24T06:17:38.412Z,2.80
2023-04-24T06:20:06.797Z,2.60
2023-04-24T06:22:33.706Z,2.90
2023-04-24T06:25:01.573Z,3.00
2023-04-24T06:27:28.345Z,2.90
2023-04-24T06:29:56.423Z,3.00
2023-04-24T06:32:25.203Z,3.10
2023-04-24T06:34:53.281Z,3.80
2023-04-24T06:37:23.883Z,3.43
2023-04-24T06:39:50.570Z,3.33
2023-04-24T06:42:17.220Z,4.50
2023-04-24T06:44:44.127Z,4.00
2023-04-24T06:47:11.492Z,4.20
2023-04-24T06:49:38.776Z,4.20
2023-04-24T06:52:05.652Z,4.93
2023-04-24T06:54:32.889Z,4.63
2023-04-24T06:57:01.566Z,4.90
2023-04-24T06:59:29.160Z,4.87
2023-04-24T07:01:56.661Z,5.20
2023-04-24T07:04:23.571Z,5.00
2023-04-24T07:06:50.645Z,4.73
2023-04-24T07:09:18.393Z,4.70
2023-04-24T07:11:46.414Z,4.70
2023-04-24T07:14:13.638Z,5.10
2023-04-24T07:16:40.588Z,5.10
2023-04-24T07:19:07.955Z,4.73
2023-04-24T07:21:34.666Z,4.80
2023-04-24T07:24:01.659Z,5.10
2023-04-24T07:26:32.078Z,5.50
2023-04-24T07:28:58.973Z,4.67
2023-04-24T07:31:25.981Z,4.20
2023-04-24T07:33:52.969Z,3.70
2023-04-24T07:36:20.262Z,2.60
2023-04-24T07:38:47.573Z,2.67
2023-04-24T07:41:15.101Z,2.60
2023-04-24T07:43:42.688Z,2.70
2023-04-24T07:46:09.980Z,3.17
2023-04-24T07:48:37.537Z,3.53
2023-04-24T07:51:04.647Z,3.90
2023-04-24T07:53:31.363Z,4.00
2023-04-24T07:55:58.103Z,4.13
2023-04-24T07:58:25.017Z,6.50
2023-04-24T08:00:52.383Z,5.30
2023-04-24T08:03:21.026Z,5.20
2023-04-24T08:05:48.020Z,5.57
2023-04-24T08:08:15.073Z,6.83
2023-04-24T08:10:41.761Z,7.17
2023-04-24T08:13:08.567Z,8.97
2023-04-24T08:15:35.556Z,9.67
2023-04-24T08:18:02.365Z,10.17
2023-04-24T08:20:29.184Z,11.10
2023-04-24T08:22:56.220Z,12.20
2023-04-24T08:25:24.141Z,10.90
2023-04-24T08:27:51.105Z,12.43
2023-04-24T08:30:18.448Z,12.33
2023-04-24T08:32:45.288Z,12.43
2023-04-24T08:35:12.109Z,12.20
2023-04-24T08:37:39.012Z,13.70
2023-04-24T08:40:13.012Z,11.93
2023-04-24T08:42:42.708Z,12.30
2023-04-24T08:45:10.795Z,11.97
2023-04-24T08:47:39.931Z,12.50
2023-04-24T08:50:08.190Z,12.90
2023-04-24T08:52:35.742Z,11.37
2023-04-24T08:55:03.667Z,12.07
2023-04-24T08:57:32.105Z,12.10
2023-04-24T09:00:00.216Z,11.73
2023-04-24T09:02:27.478Z,11.20
2023-04-24T09:04:56.622Z,11.27
2023-04-24T09:07:27.057Z,11.37
2023-04-24T09:09:54.139Z,11.03
2023-04-24T09:12:21.660Z,10.77
2023-04-24T09:14:50.971Z,10.70
2023-04-24T09:17:17.657Z,11.20
2023-04-24T09:19:44.483Z,9.47
2023-04-24T09:22:12.237Z,8.70
2023-04-24T09:24:40.135Z,7.60
2023-04-24T09:27:08.938Z,8.37
2023-04-24T09:29:37.472Z,6.50
2023-04-24T09:32:22.581Z,5.90
2023-04-24T09:34:49.925Z,5.03
2023-04-24T09:37:30.295Z,5.10
2023-04-24T09:40:14.711Z,5.23
2023-04-24T09:42:46.421Z,4.70
2023-04-24T09:45:15.426Z,5.27
2023-04-24T09:47:42.569Z,5.80
2023-04-24T09:50:13.465Z,5.63
2023-04-24T09:52:56.717Z,5.60
2023-04-24T09:55:23.483Z,5.43
2023-04-24T09:57:56.070Z,4.93
2023-04-24T10:00:24.485Z,5.60
2023-04-24T10:02:53.033Z,5.40
2023-04-24T10:05:19.878Z,4.70
2023-04-24T10:07:48.408Z,5.37
2023-04-24T10:10:17.472Z,4.57
2023-04-24T10:12:45.271Z,4.67
2023-04-24T10:15:13.495Z,5.57
2023-04-24T10:17:41.488Z,4.90
2023-04-24T10:20:09.369Z,4.27
2023-04-24T10:22:37.210Z,4.47
2023-04-24T10:25:06.106Z,4.53
2023-04-24T10:27:33.301Z,5.17
2023-04-24T10:30:01.409Z,4.67
2023-04-24T10:32:28.124Z,4.13
2023-04-24T10:34:57.399Z,3.73
2023-04-24T10:37:26.434Z,3.40
2023-04-24T10:39:55.650Z,3.70
2023-04-24T10:42:25.650Z,2.87
2023-04-24T10:44:52.552Z,3.60
2023-04-24T10:47:19.259Z,3.20
2023-04-24T10:49:46.777Z,3.40
2023-04-24T10:52:15.964Z,3.43
2023-04-24T10:54:46.855Z,2.80
2023-04-24T10:57:23.546Z,3.57
2023-04-24T10:59:52.973Z,3.10
2023-04-24T11:02:36.320Z,3.40
2023-04-24T11:05:06.454Z,3.47
2023-04-24T11:08:21.755Z,3.00
2023-04-24T11:10:59.544Z,3.17
2023-04-24T11:13:55.207Z,3.60
2023-04-24T11:16:33.742Z,3.83
2023-04-24T11:19:08.000Z,3.30
2023-04-24T11:21:47.839Z,3.90
2023-04-24T11:24:30.014Z,3.60
2023-04-24T11:27:05.680Z,3.80
2023-04-24T11:29:47.342Z,3.37
2023-04-24T11:32:30.862Z,3.27
2023-04-24T11:34:57.564Z,3.40
2023-04-24T11:37:27.112Z,3.60
2023-04-24T11:39:59.247Z,3.20
2023-04-24T11:42:29.110Z,2.67
2023-04-24T11:44:56.848Z,3.20
2023-04-24T11:47:35.019Z,3.20
2023-04-24T11:50:03.491Z,3.10
2023-04-24T11:52:31.961Z,2.87
2023-04-24T11:55:01.090Z,2.80
2023-04-24T11:57:34.335Z,2.30
2023-04-24T12:00:07.037Z,2.10
2023-04-24T12:02:39.487Z,2.23
2023-04-24T12:05:07.836Z,1.87
2023-04-24T12:07:43.797Z,1.80
2023-04-24T12:10:10.768Z,1.53
2023-04-24T12:12:37.588Z,1.67
2023-04-24T12:15:09.167Z,1.47
2023-04-24T12:17:37.820Z,1.50
2023-04-24T12:20:07.940Z,1.43
2023-04-24T12:22:55.725Z,1.30
2023-04-24T12:25:33.785Z,1.20
2023-04-24T12:28:07.038Z,1.33
2023-04-24T12:30:36.536Z,1.47
2023-04-24T12:33:04.491Z,1.33
2023-04-24T12:35:34.598Z,1.40
2023-04-24T12:38:09.383Z,1.17
2023-04-24T12:40:36.524Z,1.43
2023-04-24T12:43:03.469Z,1.53
2023-04-24T12:45:30.338Z,1.53
2023-04-24T12:47:57.562Z,1.67
2023-04-24T12:50:24.274Z,2.23
2023-04-24T12:52:51.707Z,1.20
2023-04-24T12:55:18.624Z,1.70
2023-04-24T12:57:45.362Z,1.00
2023-04-24T13:00:12.609Z,1.43
2023-04-24T13:02:39.946Z,1.37
2023-04-24T13:05:07.344Z,1.57
2023-04-24T13:07:34.050Z,1.80
2023-04-24T13:10:00.878Z,1.60
2023-04-24T13:12:27.829Z,1.70
2023-04-24T13:14:54.950Z,1.40
2023-04-24T13:17:21.783Z,1.77
2023-04-24T13:19:52.044Z,1.50
2023-04-24T13:22:25.538Z,1.30
2023-04-24T13:24:52.436Z,1.37
2023-04-24T13:27:31.486Z,1.40
2023-04-24T13:30:10.642Z,2.43
2023-04-24T13:33:06.754Z,1.77
2023-04-24T13:35:42.800Z,2.40
2023-04-24T13:38:28.994Z,1.83
2023-04-24T13:41:19.934Z,1.80
2023-04-24T13:43:52.761Z,1.80
2023-04-24T13:46:31.069Z,1.77
2023-04-24T13:49:01.329Z,1.80
2023-04-24T13:51:28.453Z,2.13
2023-04-24T13:53:56.023Z,1.70
2023-04-24T13:56:23.629Z,2.23
2023-04-24T13:58:50.398Z,3.03
2023-04-24T14:01:17.266Z,2.57
2023-04-24T14:03:47.472Z,3.00
2023-04-24T14:06:14.452Z,2.97
2023-04-24T14:08:41.202Z,2.60
2023-04-24T14:11:08.040Z,2.80
2023-04-24T14:13:37.364Z,3.30
2023-04-24T14:16:04.548Z,3.07
2023-04-24T14:18:31.425Z,2.67
2023-04-24T14:20:58.247Z,3.27
2023-04-24T14:23:24.915Z,3.90
2023-04-24T14:25:53.488Z,3.00
2023-04-24T14:28:21.273Z,3.43
2023-04-24T14:30:49.077Z,3.20
2023-04-24T14:33:16.097Z,2.70
2023-04-24T14:35:43.804Z,3.50
2023-04-24T14:38:11.010Z,4.50
2023-04-24T14:41:04.563Z,3.47
2023-04-24T14:43:25.596Z,3.37
2023-04-24T14:45:52.420Z,3.27
2023-04-24T14:48:19.832Z,3.37
2023-04-24T14:50:46.873Z,4.27
2023-04-24T14:53:14.315Z,2.93
2023-04-24T14:55:41.071Z,2.47
2023-04-24T14:58:07.878Z,2.67
2023-04-24T15:00:34.653Z,2.40
2023-04-24T15:03:02.794Z,3.20
2023-04-24T15:05:30.149Z,2.80
2023-04-24T15:07:57.345Z,2.27
2023-04-24T15:10:24.848Z,2.50
2023-04-24T15:12:51.593Z,2.70
2023-04-24T15:15:18.401Z,2.70
2023-04-24T15:17:45.171Z,2.87
2023-04-24T15:20:11.963Z,2.90
2023-04-24T15:22:38.690Z,2.73
2023-04-24T15:25:06.862Z,2.83
2023-04-24T15:27:46.789Z,2.93
2023-04-24T15:30:14.571Z,2.67
2023-04-24T15:32:41.427Z,2.77
2023-04-24T15:35:10.049Z,3.23
2023-04-24T15:37:39.221Z,3.10
2023-04-24T15:40:08.335Z,3.17
2023-04-24T15:42:35.840Z,2.97
2023-04-24T15:45:02.743Z,3.43
2023-04-24T15:47:29.569Z,2.20
2023-04-24T15:49:56.397Z,3.27
2023-04-24T15:52:23.259Z,2.93
2023-04-24T15:54:50.284Z,2.80
2023-04-24T15:57:17.608Z,2.67
2023-04-24T15:59:45.480Z,3.00
2023-04-24T16:02:20.887Z,2.80
2023-04-24T16:04:49.056Z,2.60
2023-04-24T16:07:18.181Z,3.10
2023-04-24T16:09:45.209Z,3.47
2023-04-24T16:12:12.148Z,3.57
2023-04-24T16:14:39.349Z,3.13
2023-04-24T16:17:06.741Z,3.80
2023-04-24T16:19:36.258Z,3.60
2023-04-24T16:22:03.727Z,3.77
2023-04-24T16:24:31.174Z,3.93
2023-04-24T16:26:58.084Z,3.93
2023-04-24T16:29:24.892Z,4.33
2023-04-24T16:31:51.933Z,4.17
2023-04-24T16:34:18.909Z,4.53
2023-04-24T16:36:45.627Z,3.73
2023-04-24T16:39:13.206Z,4.37
2023-04-24T16:41:40.876Z,4.37
2023-04-24T16:44:07.976Z,4.03
2023-04-24T16:46:35.313Z,3.70
2023-04-24T16:49:02.542Z,4.00
2023-04-24T16:51:29.254Z,3.93
2023-04-24T16:53:56.169Z,4.67
2023-04-24T16:56:23.020Z,3.50
2023-04-24T16:58:50.773Z,3.33
2023-04-24T17:01:17.954Z,3.80
2023-04-24T17:03:45.088Z,3.63
2023-04-24T17:06:12.630Z,3.63
2023-04-24T17:08:39.676Z,3.40
2023-04-24T17:11:06.467Z,3.07
2023-04-24T17:13:33.177Z,3.53
2023-04-24T17:16:00.093Z,3.50
2023-04-24T17:18:27.245Z,3.50
2023-04-24T17:20:57.276Z,3.57
2023-04-24T17:23:24.194Z,4.40
2023-04-24T17:25:51.340Z,3.40
2023-04-24T17:28:27.015Z,3.30
2023-04-24T17:30:57.863Z,3.50
2023-04-24T17:33:29.600Z,3.67
2023-04-24T17:35:58.114Z,3.47
2023-04-24T17:38:25.281Z,3.97
2023-04-24T17:40:53.163Z,4.43
2023-04-24T17:43:21.026Z,3.93
2023-04-24T17:45:51.033Z,4.30
2023-04-24T17:48:19.628Z,4.03
2023-04-24T17:50:46.649Z,4.10
2023-04-24T17:53:13.726Z,4.27
2023-04-24T17:55:43.623Z,4.00
2023-04-24T17:58:10.924Z,3.97
2023-04-24T18:00:38.151Z,4.17
2023-04-24T18:03:06.947Z,4.53
2023-04-24T18:05:35.888Z,4.07
2023-04-24T18:08:03.879Z,4.47
2023-04-24T18:10:32.242Z,4.03
2023-04-24T18:12:59.602Z,4.60
2023-04-24T18:15:26.494Z,3.97
2023-04-24T18:17:53.252Z,4.23
2023-04-24T18:20:20.269Z,4.03
2023-04-24T18:22:47.288Z,3.80
2023-04-24T18:25:14.739Z,4.20
2023-04-24T18:27:42.274Z,4.30
2023-04-24T18:30:14.175Z,4.03
2023-04-24T18:32:41.805Z,4.50
2023-04-24T18:35:09.000Z,4.77
2023-04-24T18:37:35.784Z,4.23
2023-04-24T18:40:03.555Z,4.60
2023-04-24T18:42:30.566Z,4.87
2023-04-24T18:45:01.447Z,4.30
2023-04-24T18:47:28.988Z,4.20
2023-04-24T18:49:55.737Z,4.60
2023-04-24T18:52:25.845Z,4.70
2023-04-24T18:54:52.617Z,5.03
2023-04-24T18:58:08.676Z,4.87
2023-04-24T19:00:53.932Z,5.47
2023-04-24T19:03:48.905Z,4.50
2023-04-24T19:10:38.284Z,5.70
2023-04-24T19:20:31.209Z,4.57
2023-04-24T19:22:58.074Z,4.60
2023-04-24T19:25:25.298Z,4.40
2023-04-24T19:27:52.100Z,4.90
2023-04-24T19:30:18.886Z,4.63
2023-04-24T19:32:45.990Z,4.67
2023-04-24T19:35:12.855Z,4.50
2023-04-24T19:37:39.780Z,5.10
2023-04-24T19:40:07.497Z,4.07
2023-04-24T19:42:43.322Z,5.90
2023-04-24T19:45:12.256Z,4.77
2023-04-24T19:47:39.668Z,4.33
2023-04-24T19:50:07.420Z,4.90
2023-04-24T19:52:34.141Z,4.70
2023-04-24T19:55:00.928Z,4.47
2023-04-24T19:57:27.885Z,4.50
2023-04-24T19:59:54.916Z,4.47
2023-04-24T20:02:22.541Z,5.20
2023-04-24T20:04:49.635Z,4.53
2023-04-24T20:07:16.342Z,4.40
2023-04-24T20:09:43.064Z,4.60
2023-04-24T20:12:10.980Z,4.07
2023-04-24T20:14:38.249Z,4.43
2023-04-24T20:17:04.996Z,4.20
2023-04-24T20:19:31.729Z,4.70
2023-04-24T20:21:59.415Z,5.20
2023-04-24T20:24:26.192Z,4.80
2023-04-24T20:26:52.860Z,4.13
2023-04-24T20:29:19.580Z,4.53
2023-04-24T20:31:46.741Z,4.40
2023-04-24T20:34:13.594Z,4.47
2023-04-24T20:36:45.628Z,4.13
2023-04-24T20:39:15.567Z,4.30
2023-04-24T20:41:44.106Z,3.93
2023-04-24T20:44:11.779Z,4.43
2023-04-24T20:46:38.917Z,4.23
2023-04-24T20:49:05.624Z,3.67
2023-04-24T20:51:32.914Z,4.77
2023-04-24T20:53:59.718Z,4.00
2023-04-24T20:56:26.688Z,4.03
2023-04-24T20:58:56.143Z,3.67
2023-04-24T21:01:24.087Z,4.03
2023-04-24T21:03:52.377Z,3.63
2023-04-24T21:06:19.538Z,4.10
2023-04-24T21:08:46.412Z,4.10
2023-04-24T21:11:13.244Z,4.73
2023-04-24T21:13:42.179Z,3.50
2023-04-24T21:16:12.313Z,4.00
2023-04-24T21:18:41.346Z,4.30
2023-04-24T21:21:09.295Z,4.33
2023-04-24T21:23:36.698Z,3.63
2023-04-24T21:26:06.985Z,4.67
2023-04-24T21:28:33.715Z,4.43
2023-04-24T21:31:01.776Z,4.60
2023-04-24T21:33:28.863Z,3.83
2023-04-24T21:35:56.743Z,4.57
2023-04-24T21:38:25.479Z,5.17
2023-04-24T21:40:52.395Z,4.40
2023-04-24T21:43:25.402Z,4.70
2023-04-24T21:45:57.539Z,3.30
2023-04-24T21:48:24.456Z,4.03
2023-04-24T21:50:51.367Z,3.70
2023-04-24T21:53:18.160Z,3.27
2023-04-24T21:55:45.752Z,3.80
2023-04-24T21:58:12.907Z,3.87
2023-04-24T22:00:39.749Z,3.20
2023-04-24T22:03:06.679Z,3.50
2023-04-24T22:05:33.514Z,4.50
2023-04-24T22:08:00.345Z,3.53
2023-04-24T22:10:27.156Z,3.00
2023-04-24T22:12:54.705Z,3.90
2023-04-24T22:15:21.463Z,3.43
2023-04-24T22:17:49.758Z,3.90
2023-04-24T22:20:19.341Z,3.70
2023-04-24T22:22:46.432Z,3.60
2023-04-24T22:25:13.149Z,3.90
2023-04-24T22:27:39.826Z,3.57
2023-04-24T22:30:09.624Z,4.10
2023-04-24T22:32:37.883Z,4.40
2023-04-24T22:35:05.391Z,4.93
2023-04-24T22:37:32.111Z,3.77
2023-04-24T22:40:01.184Z,4.47
2023-04-24T22:42:29.129Z,4.70
2023-04-24T22:44:55.931Z,5.00
2023-04-24T22:47:23.112Z,5.27
2023-04-24T22:49:49.905Z,3.77
2023-04-24T22:52:17.071Z,4.77
2023-04-24T22:54:43.911Z,4.40
2023-04-24T22:57:12.413Z,4.27
2023-04-24T22:59:39.466Z,4.20
2023-04-24T23:02:06.288Z,4.37
2023-04-24T23:04:33.099Z,4.30
2023-04-24T23:06:59.770Z,4.97
2023-04-24T23:09:26.683Z,4.87
2023-04-24T23:11:53.431Z,4.33
2023-04-24T23:14:20.178Z,4.33
2023-04-24T23:16:46.899Z,5.10
2023-04-24T23:19:13.663Z,4.70
2023-04-24T23:21:40.557Z,4.47
2023-04-24T23:24:07.460Z,4.53
2023-04-24T23:26:34.348Z,4.40
2023-04-24T23:29:01.147Z,4.13
2023-04-24T23:31:27.991Z,4.50
2023-04-24T23:33:54.696Z,4.30
2023-04-24T23:36:21.465Z,4.23
2023-04-24T23:38:50.651Z,5.43
2023-04-24T23:41:21.198Z,4.77
2023-04-24T23:43:48.037Z,4.20
2023-04-24T23:46:14.995Z,4.43
2023-04-24T23:48:41.736Z,4.27
2023-04-24T23:51:08.627Z,4.97
2023-04-24T23:53:35.431Z,4.00
2023-04-24T23:56:02.574Z,4.43
2023-04-24T23:58:29.985Z,4.90
